Time;durP1;ratioP1;P1;durP2;ratioP2;P2;SDS_P1;SDS_P2;PMS_P1;PMS_P2;Temp;Humidity;BMP_temperature;BMP_pressure;BME280_temperature;BME280_humidity;BME280_pressure;Samples;Min_cycle;Max_cycle;Signal;HPM_P1;HPM_P2
2021/12/09 09:59:42;;;;;;;0.40;0.10;;;17.50;33.50;20.10;92939.00;;;;10513401;28;45077;-63
2021/12/09 10:04:46;;;;;;;0.38;0.20;;;17.80;32.80;20.20;92937.00;;;;10486988;28;46809;-67
2021/12/09 10:09:50;;;;;;;1.52;0.20;;;18.60;31.10;20.30;92950.00;;;;10469441;28;45735;-60
2021/12/09 10:14:54;;;;;;;0.93;0.30;;;19.20;30.00;20.50;92947.00;;;;10503699;28;45333;-62
2021/12/09 10:19:57;;;;;;;0.85;0.30;;;19.60;28.50;20.40;92940.00;;;;10511580;28;45263;-63
2021/12/09 10:25:00;;;;;;;0.95;0.30;;;19.70;28.30;20.50;92938.00;;;;10512776;27;45164;-64
2021/12/09 10:30:12;;;;;;;2.70;0.40;;;19.80;28.10;20.50;92935.00;;;;10511033;28;46425;-63
2021/12/09 10:35:17;;;;;;;0.82;0.30;;;19.90;28.00;20.50;92927.00;;;;10512358;27;45432;-63
2021/12/09 10:40:25;;;;;;;0.60;0.28;;;20.00;27.90;20.60;92927.00;;;;10510881;28;45140;-63
2021/12/09 10:45:38;;;;;;;1.35;0.30;;;20.10;27.70;20.60;92926.00;;;;10510778;28;46020;-61
2021/12/09 10:55:59;;;;;;;0.90;0.30;;;20.10;27.50;20.60;92928.00;;;;10509251;28;45344;-61
2021/12/09 11:01:06;;;;;;;1.88;0.30;;;20.10;27.40;20.60;92908.00;;;;10490064;28;47725;-64
2021/12/09 11:06:12;;;;;;;0.77;0.10;;;20.10;27.20;20.70;92920.00;;;;10457343;28;47302;-63
2021/12/09 11:11:30;;;;;;;0.43;0.30;;;20.20;27.30;20.70;92906.00;;;;10439476;28;48178;-63
2021/12/09 11:16:38;;;;;;;0.60;0.32;;;20.20;27.30;20.70;92914.00;;;;10482315;28;45616;-63
2021/12/09 11:21:45;;;;;;;2.95;0.20;;;20.30;27.50;20.70;92909.00;;;;10464228;28;47348;-62
2021/12/09 11:27:00;;;;;;;0.60;0.38;;;20.30;27.50;20.70;92917.00;;;;10449688;28;45421;-62
2021/12/09 11:32:21;;;;;;;3.83;0.57;;;20.30;27.60;20.70;92921.00;;;;10440492;28;45411;-63
2021/12/09 11:42:36;;;;;;;1.13;0.35;;;20.30;27.40;20.70;92922.00;;;;10438814;28;45302;-64
2021/12/09 11:47:39;;;;;;;1.08;0.35;;;20.30;27.30;20.70;92898.00;;;;10439123;28;46232;-63
2021/12/09 11:52:43;;;;;;;0.25;0.22;;;20.30;27.30;20.70;92906.00;;;;10438624;28;45300;-63
2021/12/09 11:57:57;;;;;;;0.93;0.32;;;20.20;27.10;20.70;92925.00;;;;10438203;28;45486;-62
2021/12/09 12:14:45;;;;;;;1.58;0.55;;;20.30;27.30;20.70;92928.00;;;;10438955;28;45146;-63
2021/12/09 12:20:29;;;;;;;0.93;0.30;;;20.30;27.40;20.70;92931.00;;;;10420314;28;47145;-63
2021/12/09 12:31:42;;;;;;;0.88;0.30;;;20.20;27.10;20.60;92906.00;;;;10479923;28;45170;-61
2021/12/09 12:36:29;;;;;;;0.95;0.40;;;20.20;27.10;20.60;92920.00;;;;10475989;28;46279;-62
2021/12/09 12:41:30;;;;;;;1.05;0.30;;;20.20;27.00;20.60;92912.00;;;;10463795;28;47407;-62
2021/12/09 12:47:01;;;;;;;0.70;0.25;;;20.20;26.90;20.60;92913.00;;;;10478400;28;45397;-62
2021/12/09 12:52:14;;;;;;;1.13;0.40;;;20.20;26.80;20.60;92909.00;;;;10478328;28;45299;-63
2021/12/09 12:57:39;;;;;;;1.15;0.40;;;20.20;26.80;20.70;92915.00;;;;10477977;28;45257;-63
2021/12/09 13:18:46;;;;;;;0.93;0.30;;;20.20;26.70;20.70;92919.00;;;;10410335;28;45270;-63
2021/12/09 13:24:37;;;;;;;1.08;0.50;;;20.20;26.70;20.70;92906.00;;;;10415821;28;48156;-63
2021/12/09 13:29:56;;;;;;;0.85;0.30;;;20.20;26.80;20.60;92906.00;;;;10426159;28;45406;-63
2021/12/09 13:35:11;;;;;;;0.93;0.30;;;20.20;26.70;20.60;92913.00;;;;10477759;28;45500;-62
2021/12/09 13:45:43;;;;;;;1.25;0.40;;;20.20;26.70;20.60;92907.00;;;;10477226;28;46161;-62
2021/12/09 13:45:52;;;;;;;0.85;0.30;;;20.20;26.70;20.60;92903.00;;;;10476024;28;45566;-62
2021/12/09 13:55:54;;;;;;;1.85;0.30;;;20.20;26.70;20.60;92920.00;;;;10475790;28;45218;-62
2021/12/09 14:00:55;;;;;;;1.35;0.50;;;20.20;26.70;20.60;92910.00;;;;10476649;28;47009;-63
2021/12/09 14:06:16;;;;;;;1.42;0.60;;;20.20;26.70;20.70;92926.00;;;;10447630;28;45322;-64
2021/12/09 14:11:31;;;;;;;1.05;0.30;;;20.20;26.80;20.80;92926.00;;;;10463778;28;45604;-62
2021/12/09 14:21:46;;;;;;;1.52;0.40;;;20.30;26.80;20.70;92924.00;;;;10475584;28;46057;-62
2021/12/09 14:27:10;;;;;;;2.03;0.50;;;20.20;26.60;20.70;92934.00;;;;10474374;28;46342;-62
2021/12/09 14:32:11;;;;;;;3.47;0.40;;;20.20;26.80;20.80;92933.00;;;;10475405;28;45326;-62
2021/12/09 14:37:14;;;;;;;2.35;0.65;;;20.30;26.90;20.80;92936.00;;;;10475988;28;45364;-66
2021/12/09 14:42:20;;;;;;;1.00;0.50;;;20.30;27.10;20.90;92942.00;;;;10459090;28;45273;-63
2021/12/09 14:47:22;;;;;;;1.23;0.40;;;20.40;27.60;20.80;92932.00;;;;10440074;28;46184;-63
2021/12/09 14:52:39;;;;;;;1.10;0.40;;;20.30;27.90;20.80;92941.00;;;;10423563;28;47020;-62
2021/12/09 14:58:05;;;;;;;1.30;0.25;;;20.30;27.60;20.90;92937.00;;;;10439383;28;46146;-62
2021/12/09 15:03:12;;;;;;;2.55;0.30;;;20.40;27.90;20.90;92937.00;;;;10423007;28;46969;-61
2021/12/09 15:08:20;;;;;;;1.52;0.30;;;20.40;28.10;20.90;92937.00;;;;10439386;28;47298;-63
2021/12/09 15:13:24;;;;;;;2.20;0.50;;;20.40;28.00;20.90;92945.00;;;;10461401;28;45556;-61
2021/12/09 15:18:29;;;;;;;2.40;0.45;;;20.50;28.00;20.90;92946.00;;;;10445700;28;45640;-62
2021/12/09 15:23:49;;;;;;;1.58;0.40;;;20.40;27.90;20.80;92944.00;;;;10442445;28;45515;-62
2021/12/09 15:29:17;;;;;;;1.42;0.32;;;20.40;27.80;20.90;92944.00;;;;10481713;28;46268;-64
2021/12/09 15:34:23;;;;;;;1.17;0.30;;;20.40;27.70;20.90;92935.00;;;;10464028;28;47968;-63
2021/12/09 15:39:30;;;;;;;1.52;0.40;;;20.40;27.50;20.90;92943.00;;;;10419908;28;47176;-63
2021/12/09 15:44:51;;;;;;;1.80;0.80;;;20.40;27.70;20.90;92955.00;;;;10439451;28;45165;-61
2021/12/09 15:49:58;;;;;;;2.97;0.60;;;20.40;27.50;20.80;92949.00;;;;10438356;28;45396;-62
2021/12/09 15:55:18;;;;;;;2.25;0.73;;;20.40;26.90;20.80;92943.00;;;;10452151;28;47834;-62
2021/12/09 16:00:25;;;;;;;3.30;0.73;;;20.40;26.90;20.80;92943.00;;;;10418186;28;47258;-61
2021/12/09 16:05:29;;;;;;;2.92;1.33;;;20.40;27.10;20.80;92956.00;;;;10431140;28;47426;-61
2021/12/09 16:10:30;;;;;;;1.60;0.50;;;20.40;27.20;20.80;92951.00;;;;10466994;28;45436;-62
2021/12/09 16:15:43;;;;;;;2.88;0.52;;;20.40;27.20;20.80;92965.00;;;;10474321;28;45424;-63
2021/12/09 16:20:56;;;;;;;1.33;0.65;;;20.40;27.00;20.90;92967.00;;;;10453005;28;45419;-65
2021/12/09 16:25:57;;;;;;;2.83;0.80;;;20.40;27.20;20.90;92959.00;;;;10436722;28;45293;-62
2021/12/09 16:30:59;;;;;;;2.10;0.70;;;20.40;27.10;20.90;92974.00;;;;10435832;28;47950;-64
2021/12/09 16:36:01;;;;;;;1.75;0.82;;;20.40;27.10;20.90;92964.00;;;;10447939;28;45505;-64
2021/12/09 16:41:04;;;;;;;2.65;1.05;;;20.40;27.00;20.90;92972.00;;;;10458218;28;45409;-63
2021/12/09 16:46:07;;;;;;;2.13;1.00;;;20.40;27.00;20.90;92968.00;;;;10435516;28;45373;-59
2021/12/09 16:51:11;;;;;;;1.42;0.95;;;20.40;27.50;20.90;92975.00;;;;10436826;28;45180;-64
2021/12/09 17:01:43;;;;;;;2.97;1.00;;;20.50;27.50;21.00;92976.00;;;;10428485;28;46250;-66
2021/12/09 17:06:44;;;;;;;3.38;1.27;;;20.50;27.40;21.00;92985.00;;;;10433040;28;46913;-64
2021/12/09 17:11:47;;;;;;;3.13;1.20;;;20.50;27.00;21.00;92983.00;;;;10442627;28;45499;-65
2021/12/09 17:16:50;;;;;;;2.63;1.20;;;20.50;27.10;21.00;92965.00;;;;10423741;28;47251;-61
2021/12/09 17:21:51;;;;;;;3.22;1.30;;;20.50;26.80;21.00;92983.00;;;;10437428;28;45573;-62
2021/12/09 17:26:58;;;;;;;3.25;1.02;;;20.50;26.90;20.90;92975.00;;;;10467710;28;46663;-68
2021/12/09 17:32:00;;;;;;;1.98;1.00;;;20.50;26.70;21.00;92971.00;;;;10445733;28;46550;-65
2021/12/09 17:37:04;;;;;;;1.75;0.73;;;20.50;26.50;21.00;92973.00;;;;10436377;28;45339;-62
2021/12/09 17:42:05;;;;;;;1.80;0.75;;;20.60;26.70;20.90;92970.00;;;;10436465;28;45417;-60
2021/12/09 17:47:10;;;;;;;1.55;0.85;;;20.50;26.70;21.00;92979.00;;;;10436043;28;45499;-61
2021/12/09 17:52:20;;;;;;;2.88;0.77;;;20.50;26.50;21.00;92959.00;;;;10435143;28;45471;-64
2021/12/09 17:57:21;;;;;;;1.98;0.80;;;20.60;27.00;21.10;92972.00;;;;10437954;28;46279;-64
2021/12/09 18:02:22;;;;;;;4.78;0.90;;;20.60;27.00;21.10;92978.00;;;;10429383;28;46875;-64
2021/12/09 18:07:23;;;;;;;2.30;0.80;;;20.60;27.00;21.10;92983.00;;;;10434541;28;45474;-64
2021/12/09 18:12:27;;;;;;;1.77;0.82;;;20.60;27.30;21.10;92975.00;;;;10445804;28;45411;-62
2021/12/09 18:17:34;;;;;;;1.50;0.70;;;20.60;27.20;21.10;92982.00;;;;10475786;28;45317;-62
2021/12/09 18:22:36;;;;;;;1.15;0.70;;;20.60;26.70;21.10;92969.00;;;;10441066;28;45597;-63
2021/12/09 18:27:40;;;;;;;2.35;0.60;;;20.60;26.70;21.00;92984.00;;;;10478324;28;45606;-63
2021/12/09 18:32:41;;;;;;;1.92;0.77;;;20.60;26.60;21.00;92972.00;;;;10481872;28;46150;-63
2021/12/09 18:37:49;;;;;;;1.75;0.65;;;20.50;26.40;21.00;92982.00;;;;10482842;28;45196;-63
2021/12/09 18:42:50;;;;;;;2.90;1.10;;;20.50;26.50;20.90;92964.00;;;;10481995;28;47563;-63
2021/12/09 18:47:53;;;;;;;2.70;0.70;;;20.50;26.40;21.00;92971.00;;;;10481880;28;45400;-63
2021/12/09 18:52:55;;;;;;;1.70;0.63;;;20.50;26.20;21.00;92962.00;;;;10464226;28;47866;-64
2021/12/09 18:57:57;;;;;;;2.97;0.95;;;20.50;26.30;21.00;92977.00;;;;10482285;28;45587;-62
2021/12/09 19:02:58;;;;;;;1.85;0.80;;;20.50;26.40;21.10;92955.00;;;;10465980;28;47347;-63
2021/12/09 19:08:02;;;;;;;2.80;0.73;;;20.60;26.40;20.80;92975.00;;;;10464792;28;47287;-65
2021/12/09 19:13:04;;;;;;;3.10;0.75;;;20.50;25.10;20.80;92959.00;;;;10464510;28;45582;-63
2021/12/09 19:18:16;;;;;;;2.45;0.70;;;20.50;25.00;20.70;92949.00;;;;10439789;28;45402;-65
2021/12/09 19:23:17;;;;;;;3.30;0.90;;;20.40;25.10;20.70;92955.00;;;;10440795;28;46977;-61
2021/12/09 19:28:19;;;;;;;1.85;0.73;;;20.40;25.10;20.60;92951.00;;;;10481811;28;45584;-61
2021/12/09 19:33:24;;;;;;;2.67;0.73;;;20.30;25.10;20.70;92945.00;;;;10481057;28;46656;-62
2021/12/09 19:38:28;;;;;;;1.35;0.55;;;20.30;25.40;20.90;92951.00;;;;10448554;28;46367;-61
2021/12/09 19:43:28;;;;;;;1.95;0.77;;;20.40;25.70;20.90;92947.00;;;;10438067;28;45337;-61
2021/12/09 19:48:29;;;;;;;2.78;0.70;;;20.40;25.70;21.00;92929.00;;;;10438764;28;45192;-61
2021/12/09 19:53:30;;;;;;;2.15;0.93;;;20.50;25.70;21.00;92944.00;;;;10438936;28;45445;-62
2021/12/09 19:58:31;;;;;;;1.65;0.60;;;20.50;25.80;21.00;92944.00;;;;10437551;28;48635;-61
2021/12/09 20:03:33;;;;;;;2.13;0.90;;;20.50;25.80;21.00;92923.00;;;;10420850;28;46917;-61
2021/12/09 20:08:37;;;;;;;1.58;0.60;;;20.50;25.70;21.10;92927.00;;;;10437545;28;46232;-62
2021/12/09 20:13:38;;;;;;;3.55;1.00;;;20.60;25.80;21.10;92924.00;;;;10460898;28;46296;-62
2021/12/09 20:18:39;;;;;;;1.35;0.73;;;20.60;25.80;21.20;92920.00;;;;10479187;28;46319;-61
2021/12/09 20:23:40;;;;;;;2.30;1.00;;;20.60;25.70;21.20;92929.00;;;;10481152;28;45302;-62
2021/12/09 20:28:40;;;;;;;1.50;0.88;;;20.70;25.70;21.20;92914.00;;;;10479327;28;45441;-62
2021/12/09 20:33:41;;;;;;;1.58;0.80;;;20.70;25.70;21.20;92931.00;;;;10479444;28;45391;-62
2021/12/09 20:38:43;;;;;;;2.40;0.90;;;20.70;25.60;21.20;92912.00;;;;10443069;28;45293;-61
2021/12/09 20:43:45;;;;;;;1.45;0.77;;;20.70;25.60;21.20;92903.00;;;;10419719;28;47114;-62
2021/12/09 20:48:46;;;;;;;1.70;0.90;;;20.70;25.60;21.20;92909.00;;;;10436831;28;45407;-62
2021/12/09 20:53:48;;;;;;;2.30;1.00;;;20.70;25.50;21.10;92897.00;;;;10438433;28;45754;-62
2021/12/09 20:58:49;;;;;;;1.13;0.85;;;20.70;25.50;21.10;92902.00;;;;10435603;28;45183;-62
2021/12/09 21:03:50;;;;;;;1.83;0.80;;;20.60;25.50;21.10;92887.00;;;;10431165;28;46023;-61
2021/12/09 21:08:50;;;;;;;1.48;0.80;;;20.60;25.50;21.10;92900.00;;;;10432171;28;46838;-62
2021/12/09 21:13:51;;;;;;;1.85;0.80;;;20.60;25.50;21.10;92889.00;;;;10431467;28;45591;-62
2021/12/09 21:18:52;;;;;;;1.48;0.90;;;20.50;25.50;21.10;92880.00;;;;10436014;28;45405;-62
2021/12/09 21:23:54;;;;;;;2.45;0.80;;;20.50;25.40;21.00;92888.00;;;;10424131;28;46484;-62
2021/12/09 21:28:56;;;;;;;1.83;0.80;;;20.50;25.40;21.00;92868.00;;;;10421562;28;45221;-62
2021/12/09 21:34:07;;;;;;;1.73;0.75;;;20.50;25.40;21.00;92853.00;;;;10394140;28;46211;-62
2021/12/09 21:39:11;;;;;;;1.50;0.70;;;20.50;25.40;20.90;92857.00;;;;10393379;28;45357;-62
2021/12/09 21:44:13;;;;;;;3.13;0.68;;;20.50;25.40;20.90;92842.00;;;;10394043;28;45418;-62
2021/12/09 21:49:14;;;;;;;2.05;0.70;;;20.40;25.40;20.90;92852.00;;;;10406415;28;46981;-61
2021/12/09 21:54:15;;;;;;;2.58;0.60;;;20.40;25.40;20.90;92839.00;;;;10432083;28;45418;-61
2021/12/09 21:59:16;;;;;;;1.75;0.80;;;20.40;25.30;20.90;92818.00;;;;10402802;28;46559;-62
2021/12/09 22:04:18;;;;;;;2.10;0.82;;;20.40;25.30;20.90;92798.00;;;;10420381;28;45136;-63
2021/12/09 22:09:18;;;;;;;1.30;0.70;;;20.40;25.30;20.90;92788.00;;;;10415318;28;47946;-63
2021/12/09 22:14:19;;;;;;;2.00;0.70;;;20.40;25.30;20.90;92779.00;;;;10406666;28;47105;-62
2021/12/09 22:19:26;;;;;;;1.60;0.60;;;20.40;25.20;20.90;92767.00;;;;10392174;28;45440;-63
2021/12/09 22:24:27;;;;;;;1.20;0.60;;;20.40;25.20;20.90;92765.00;;;;10415374;28;45432;-62
2021/12/09 22:29:28;;;;;;;1.98;0.80;;;20.40;25.20;20.90;92757.00;;;;10474698;28;48344;-63
2021/12/09 22:34:29;;;;;;;1.30;0.60;;;20.40;25.20;20.90;92753.00;;;;10475404;28;45624;-63
2021/12/09 22:39:30;;;;;;;0.73;0.68;;;20.30;25.10;20.90;92736.00;;;;10475580;28;46154;-62
2021/12/09 22:44:31;;;;;;;0.75;0.47;;;20.30;25.10;20.80;92742.00;;;;10475863;28;45296;-61
2021/12/09 22:49:37;;;;;;;1.08;0.60;;;20.30;25.10;20.80;92723.00;;;;10458503;28;47904;-62
2021/12/09 22:54:38;;;;;;;1.15;0.55;;;20.30;25.10;20.80;92698.00;;;;10475753;28;45412;-63
2021/12/09 22:59:39;;;;;;;1.27;0.43;;;20.30;25.10;20.80;92695.00;;;;10474004;28;45421;-63
2021/12/09 23:04:39;;;;;;;1.42;0.50;;;20.30;25.00;20.80;92672.00;;;;10478907;28;45398;-63
2021/12/09 23:09:40;;;;;;;1.88;0.50;;;20.30;25.00;20.80;92674.00;;;;10482262;28;45211;-63
2021/12/09 23:14:46;;;;;;;0.75;0.40;;;20.30;25.00;20.80;92658.00;;;;10450818;28;45451;-63
2021/12/09 23:19:49;;;;;;;1.30;0.60;;;20.30;25.00;20.80;92622.00;;;;10423773;28;47253;-63
2021/12/09 23:24:50;;;;;;;1.00;0.47;;;20.30;25.00;20.80;92613.00;;;;10454257;28;45270;-63
2021/12/09 23:29:50;;;;;;;0.80;0.55;;;20.30;24.90;20.80;92603.00;;;;10482537;28;45227;-63
2021/12/09 23:34:51;;;;;;;1.40;0.68;;;20.20;24.90;20.80;92591.00;;;;10481800;28;47263;-62
2021/12/09 23:39:52;;;;;;;1.33;0.60;;;20.30;24.90;20.80;92584.00;;;;10481102;28;45429;-62
2021/12/09 23:44:52;;;;;;;1.35;0.63;;;20.20;24.90;20.80;92583.00;;;;10482391;28;45457;-63
2021/12/09 23:49:53;;;;;;;1.65;0.70;;;20.20;24.90;20.80;92548.00;;;;10481292;28;45498;-63
2021/12/09 23:54:54;;;;;;;2.00;0.70;;;20.30;24.90;20.70;92543.00;;;;10481415;28;45590;-61
2021/12/09 23:59:54;;;;;;;2.58;0.80;;;20.30;24.90;20.70;92524.00;;;;10481611;28;46671;-63
